10:25
Airports
History
Links
Donate
Help keep this website running!
PayPal
Bitcoin
This page is community maintained. The information is intended for PC simulator navigation or reference.
Always use approved charts for navigation.
SWNV
AERODROMO NACIONAL DE AVIACAO
AERODROMO NACIONAL DE AVIACAO (SWNV)
Goiânia, Goiás, Brazil (74470)
(U)
Lat/Lng:16° 37' 31.45" S / 49° 20' 57.36" W
-16.625403 / -49.349268
Elevation:2707'ft / 825mMSL
ID / ICAO:SWNV
Runways:1
Longest:13-31
Asphalt 1,143m / 3,749ft
Nearby Weather10:00 GMT 2017-09-24
Nearby weather at SBGO, Santo Genoveva located 8.5 nautical miles from SWNV
Altimeter: 30.06
Visibility: 6.2 statute miles
Wind: 3 knots (from 140°)
Temp: 22°c / 72°f
Humidity: 35.4%

METAR: SBGO 241000Z 14003KT CAVOK 22/06 Q1018

(Powered by phpweather)
Runway 13 / 31
Dimensions:1142.6 x 22.9m 3749' x 75'ft
Surface:Asphalt
Runway 13 [A]Runway 31 [B]
Heading:118°TH 298°TH
Lat:
Lng:
16° 37' 22.63"S
49° 21' 14.2"W
16° 37' 40.27"S
49° 20' 40.53"W
User Notes and Comments
16° 37' 31.45" S / 49° 20' 57.36" W
Distance To
Airport ID:
Nearby Airports
4 Arnapar 6.8 NM
SWOA NNW 331°
(C) Santo Genoveva 8.5 NM
SBGO ( WX ) E 93°
(U) ANAPOLIS 33.4 NM
SWNS NE 56°
(C) BASE AEREA 37.5 NM
SBAN ( WX ) NE 42°
(U) PALMEIRAS DE GOIAS 37.7 NM
SWGP WSW 248°
4 Fazenda Rancho Estrela 47.9 NM
SIPQ ESE 122°
(U) PIRENOPOLIS CENTERAL 58.9 NM
SB06 NNE 24°
VFR Chart
Flight Planning at SkyVector.com